createdAt,value
2024-02-14T00:00:49.494Z,100959.81
2024-02-14T00:03:17.741Z,100960.94
2024-02-14T00:05:46.212Z,100955.69
2024-02-14T00:08:16.026Z,100964.00
2024-02-14T00:10:45.886Z,100967.34
2024-02-14T00:13:14.067Z,100932.06
2024-02-14T00:15:42.080Z,100970.22
2024-02-14T00:18:10.110Z,100927.59
2024-02-14T00:20:37.950Z,100975.53
2024-02-14T00:23:05.568Z,100970.69
2024-02-14T00:25:33.414Z,100984.31
2024-02-14T00:28:02.149Z,100983.34
2024-02-14T00:30:31.149Z,100974.59
2024-02-14T00:32:59.433Z,100974.03
2024-02-14T00:35:27.276Z,100985.03
2024-02-14T00:37:55.051Z,100980.00
2024-02-14T00:40:23.801Z,100982.44
2024-02-14T00:42:51.336Z,100934.00
2024-02-14T00:45:18.832Z,100984.59
2024-02-14T00:47:46.829Z,100990.09
2024-02-14T00:50:15.288Z,100998.94
2024-02-14T00:52:44.283Z,100991.69
2024-02-14T00:55:12.341Z,101001.62
2024-02-14T00:57:39.921Z,101005.28
2024-02-14T01:00:08.263Z,101006.50
2024-02-14T01:02:36.771Z,101013.13
2024-02-14T01:05:05.730Z,101010.37
2024-02-14T01:07:33.663Z,100997.72
2024-02-14T01:10:01.452Z,101009.97
2024-02-14T01:12:30.833Z,101005.75
2024-02-14T01:14:58.621Z,100968.97
2024-02-14T01:17:26.580Z,101010.41
2024-02-14T01:19:54.179Z,101006.87
2024-02-14T01:22:22.117Z,100960.22
2024-02-14T01:24:49.981Z,101008.94
2024-02-14T01:27:18.097Z,101004.06
2024-02-14T01:29:46.109Z,101001.94
2024-02-14T01:32:14.014Z,101004.97
2024-02-14T01:34:43.624Z,101006.97
2024-02-14T01:37:11.463Z,101012.56
2024-02-14T01:39:39.436Z,101011.00
2024-02-14T01:42:08.812Z,101011.97
2024-02-14T01:44:37.530Z,101018.41
2024-02-14T01:47:07.638Z,101011.06
2024-02-14T01:49:36.164Z,101010.88
2024-02-14T01:52:04.509Z,101009.00
2024-02-14T01:54:32.601Z,101016.56
2024-02-14T01:57:01.672Z,101017.59
2024-02-14T01:59:29.793Z,101014.34
2024-02-14T02:01:57.954Z,101009.03
2024-02-14T02:04:26.278Z,101000.16
2024-02-14T02:06:57.600Z,101009.50
2024-02-14T02:09:25.233Z,101012.19
2024-02-14T02:11:57.479Z,101006.41
2024-02-14T02:14:25.320Z,101014.22
2024-02-14T02:16:54.562Z,101013.72
2024-02-14T02:19:22.254Z,101024.44
2024-02-14T02:21:50.605Z,101030.84
2024-02-14T02:24:19.328Z,101027.25
2024-02-14T02:26:47.273Z,101006.63
2024-02-14T02:29:17.663Z,101003.06
2024-02-14T02:31:45.633Z,101030.75
2024-02-14T02:34:14.016Z,101022.44
2024-02-14T02:36:42.478Z,101029.34
2024-02-14T02:39:10.698Z,101031.50
2024-02-14T02:41:38.526Z,101029.72
2024-02-14T02:44:08.022Z,101038.03
2024-02-14T02:46:36.864Z,101034.88
2024-02-14T02:49:04.637Z,101034.19
2024-02-14T02:51:32.471Z,101047.03
2024-02-14T02:54:00.698Z,101049.12
2024-02-14T02:56:29.018Z,101056.53
2024-02-14T02:58:57.017Z,101056.44
2024-02-14T03:01:26.213Z,101009.22
2024-02-14T03:03:54.177Z,101015.44
2024-02-14T03:06:21.932Z,101071.03
2024-02-14T03:08:50.286Z,101069.06
2024-02-14T03:11:18.016Z,101069.28
2024-02-14T03:13:45.801Z,101070.13
2024-02-14T03:16:15.983Z,101072.91
2024-02-14T03:18:43.840Z,101083.41
2024-02-14T03:21:13.085Z,101085.41
2024-02-14T03:23:47.101Z,101087.06
2024-02-14T03:26:14.650Z,101041.91
2024-02-14T03:28:42.448Z,101046.50
2024-02-14T03:31:13.008Z,101090.38
2024-02-14T03:33:40.655Z,101093.22
2024-02-14T03:36:08.821Z,101104.53
2024-02-14T03:38:36.421Z,101097.59
2024-02-14T03:41:04.101Z,101116.78
2024-02-14T03:43:33.349Z,101111.03
2024-02-14T03:46:01.031Z,101113.53
2024-02-14T03:48:28.805Z,101118.84
2024-02-14T03:50:56.767Z,101131.94
2024-02-14T03:53:24.763Z,101127.41
2024-02-14T03:55:54.040Z,101125.78
2024-02-14T03:58:23.886Z,101135.72
2024-02-14T04:00:51.868Z,101143.62
2024-02-14T04:03:19.932Z,101144.12
2024-02-14T04:05:48.935Z,101096.41
2024-02-14T04:08:16.636Z,101143.81
2024-02-14T04:10:45.465Z,101149.37
2024-02-14T04:13:12.982Z,101163.84
2024-02-14T04:15:40.564Z,101154.34
2024-02-14T04:18:08.581Z,101159.41
2024-02-14T04:20:36.983Z,101164.06
2024-02-14T04:23:07.940Z,101115.69
2024-02-14T04:25:37.996Z,101121.09
2024-02-14T04:28:05.922Z,101165.56
2024-02-14T04:30:33.566Z,101160.97
2024-02-14T04:33:02.309Z,101122.56
2024-02-14T04:35:30.196Z,101111.41
2024-02-14T04:37:58.590Z,101169.50
2024-02-14T04:40:26.653Z,101113.84
2024-02-14T04:42:54.236Z,101159.00
2024-02-14T04:45:21.793Z,101166.84
2024-02-14T04:47:50.081Z,101168.53
2024-02-14T04:50:17.764Z,101171.19
2024-02-14T04:52:45.544Z,101164.72
2024-02-14T04:55:13.539Z,101164.66
2024-02-14T04:57:41.045Z,101162.91
2024-02-14T05:00:10.750Z,101171.41
2024-02-14T05:02:38.863Z,101166.69
2024-02-14T05:05:07.055Z,101172.16
2024-02-14T05:07:35.429Z,101178.59
2024-02-14T05:10:04.152Z,101183.66
2024-02-14T05:12:31.706Z,101181.31
2024-02-14T05:14:59.351Z,101189.03
2024-02-14T05:17:27.245Z,101194.50
2024-02-14T05:19:54.853Z,101192.81
2024-02-14T05:22:22.433Z,101155.87
2024-02-14T05:24:50.351Z,101198.72
2024-02-14T05:27:18.027Z,101199.59
2024-02-14T05:29:45.575Z,101156.72
2024-02-14T05:32:13.571Z,101204.28
2024-02-14T05:34:41.182Z,101205.06
2024-02-14T05:37:09.327Z,101206.37
2024-02-14T05:39:37.237Z,101209.75
2024-02-14T05:42:06.929Z,101209.47
2024-02-14T05:44:34.565Z,101214.03
2024-02-14T05:47:02.513Z,101215.31
2024-02-14T05:49:30.252Z,101228.28
2024-02-14T05:51:58.003Z,101230.03
2024-02-14T05:54:26.548Z,101232.63
2024-02-14T05:56:54.148Z,101236.19
2024-02-14T05:59:22.403Z,101241.38
2024-02-14T06:01:50.534Z,101236.06
2024-02-14T06:04:18.650Z,101238.78
2024-02-14T06:06:46.290Z,101239.16
2024-02-14T06:09:13.998Z,101200.59
2024-02-14T06:11:42.157Z,101219.13
2024-02-14T06:14:09.954Z,101203.03
2024-02-14T06:16:37.694Z,101259.41
2024-02-14T06:19:06.037Z,101266.53
2024-02-14T06:21:33.922Z,101263.16
2024-02-14T06:24:02.931Z,101264.41
2024-02-14T06:26:32.637Z,101267.25
2024-02-14T06:29:00.253Z,101274.72
2024-02-14T06:31:30.183Z,101273.28
2024-02-14T06:33:58.257Z,101265.91
2024-02-14T06:36:26.024Z,101278.06
2024-02-14T06:38:54.232Z,101225.50
2024-02-14T06:41:22.138Z,101292.47
2024-02-14T06:43:50.473Z,101284.72
2024-02-14T06:46:18.193Z,101286.72
2024-02-14T06:48:46.378Z,101299.69
2024-02-14T06:51:14.421Z,101289.78
2024-02-14T06:53:42.574Z,101288.59
2024-02-14T06:56:11.554Z,101305.34
2024-02-14T06:58:40.182Z,101295.09
2024-02-14T07:01:09.381Z,101304.25
2024-02-14T07:03:38.842Z,101302.06
2024-02-14T07:06:09.681Z,101298.72
2024-02-14T07:08:42.527Z,101304.63
2024-02-14T07:11:12.957Z,101251.25
2024-02-14T07:13:45.448Z,101304.00
2024-02-14T07:16:14.982Z,101256.12
2024-02-14T07:18:45.098Z,101300.09
2024-02-14T07:21:14.640Z,101299.38
2024-02-14T07:23:46.998Z,101307.22
2024-02-14T07:26:17.618Z,101313.41
2024-02-14T07:28:48.339Z,101308.22
2024-02-14T07:31:17.745Z,101310.06
2024-02-14T07:33:48.821Z,101321.41
2024-02-14T07:36:17.381Z,101274.94
2024-02-14T07:38:45.828Z,101327.66
2024-02-14T07:41:13.878Z,101284.16
2024-02-14T07:43:42.292Z,101321.47
2024-02-14T07:46:10.032Z,101320.94
2024-02-14T07:48:37.706Z,101318.88
2024-02-14T07:51:09.291Z,101321.66
2024-02-14T07:53:37.114Z,101300.25
2024-02-14T07:56:05.269Z,101321.75
2024-02-14T07:58:32.767Z,101322.03
2024-02-14T08:01:00.440Z,101320.97
2024-02-14T08:03:28.307Z,101325.44
2024-02-14T08:05:56.010Z,101332.09
2024-02-14T08:08:26.194Z,101295.19
2024-02-14T08:10:55.087Z,101324.87
2024-02-14T08:13:23.046Z,101326.06
2024-02-14T08:15:51.258Z,101333.81
2024-02-14T08:18:19.466Z,101335.16
2024-02-14T08:20:47.515Z,101338.87
2024-02-14T08:23:15.721Z,101329.94
2024-02-14T08:25:44.016Z,101313.50
2024-02-14T08:28:11.762Z,101332.37
2024-02-14T08:30:39.741Z,101345.03
2024-02-14T08:33:08.509Z,101331.06
2024-02-14T08:35:41.870Z,101327.66
2024-02-14T08:38:11.600Z,101349.31
2024-02-14T08:40:39.094Z,101341.06
2024-02-14T08:43:08.230Z,101338.59
2024-02-14T08:45:36.223Z,101344.72
2024-02-14T08:48:04.808Z,101335.06
2024-02-14T08:50:35.070Z,101329.56
2024-02-14T08:53:03.179Z,101325.69
2024-02-14T08:55:34.127Z,101333.25
2024-02-14T08:58:02.167Z,101323.69
2024-02-14T09:00:32.280Z,101329.06
2024-02-14T09:03:01.493Z,101327.34
2024-02-14T09:05:31.131Z,101334.47
2024-02-14T09:07:59.411Z,101281.44
2024-02-14T09:10:27.060Z,101331.06
2024-02-14T09:12:54.681Z,101324.66
2024-02-14T09:15:23.036Z,101342.25
2024-02-14T09:17:50.952Z,101343.25
2024-02-14T09:20:20.273Z,101338.72
2024-02-14T09:22:48.193Z,101339.59
2024-02-14T09:25:16.249Z,101340.44
2024-02-14T09:27:45.074Z,101348.53
2024-02-14T09:30:21.934Z,101348.09
2024-02-14T09:32:56.392Z,101342.22
2024-02-14T09:35:25.944Z,101355.19
2024-02-14T09:37:53.757Z,101356.22
2024-02-14T09:40:21.756Z,101354.12
2024-02-14T09:42:59.114Z,101353.84
2024-02-14T09:45:27.570Z,101358.66
2024-02-14T09:47:56.736Z,101346.16
2024-02-14T09:50:25.306Z,101350.06
2024-02-14T09:52:54.079Z,101355.41
2024-02-14T09:55:24.500Z,101306.91
2024-02-14T09:57:53.033Z,101351.97
2024-02-14T10:00:22.870Z,101347.97
2024-02-14T10:02:51.300Z,101342.53
2024-02-14T10:05:19.046Z,101305.41
2024-02-14T10:07:47.835Z,101343.62
2024-02-14T10:10:15.894Z,101339.13
2024-02-14T10:12:44.124Z,101341.13
2024-02-14T10:15:11.966Z,101339.88
2024-02-14T10:17:42.139Z,101334.94
2024-02-14T10:20:10.934Z,101320.84
2024-02-14T10:22:39.914Z,101324.09
2024-02-14T10:25:09.915Z,101291.88
2024-02-14T10:27:40.968Z,101325.47
2024-02-14T10:30:11.245Z,101322.75
2024-02-14T10:32:41.711Z,101324.50
2024-02-14T10:35:10.471Z,101271.31
2024-02-14T10:38:13.462Z,101318.53
2024-02-14T10:40:41.838Z,101322.13
2024-02-14T10:43:13.285Z,101321.81
2024-02-14T10:45:41.200Z,101315.31
2024-02-14T10:48:16.200Z,101310.44
2024-02-14T10:50:46.041Z,101306.59
2024-02-14T10:53:16.949Z,101301.69
2024-02-14T10:55:50.424Z,101305.13
2024-02-14T10:58:18.545Z,101262.00
2024-02-14T11:00:48.223Z,101291.47
2024-02-14T11:03:16.849Z,101295.28
2024-02-14T11:05:47.126Z,101256.19
2024-02-14T11:08:22.590Z,101291.22
2024-02-14T11:10:57.871Z,101278.25
2024-02-14T11:13:33.163Z,101286.69
2024-02-14T11:16:05.960Z,101288.88
2024-02-14T11:18:37.495Z,101297.50
2024-02-14T11:21:06.348Z,101295.13
2024-02-14T11:23:34.497Z,101299.69
2024-02-14T11:26:04.439Z,101290.34
2024-02-14T11:28:32.179Z,101292.34
2024-02-14T11:31:02.461Z,101289.09
2024-02-14T11:33:31.280Z,101293.72
2024-02-14T11:36:00.101Z,101284.34
2024-02-14T11:38:31.108Z,101240.56
2024-02-14T11:40:58.895Z,101273.13
2024-02-14T11:43:26.681Z,101233.50
2024-02-14T11:45:54.930Z,101271.25
2024-02-14T11:48:24.972Z,101269.47
2024-02-14T11:50:54.560Z,101264.16
2024-02-14T11:53:22.724Z,101263.66
2024-02-14T11:55:50.596Z,101263.81
2024-02-14T11:58:19.260Z,101273.41
2024-02-14T12:00:50.061Z,101264.44
2024-02-14T12:03:21.950Z,101264.84
2024-02-14T12:05:52.208Z,101263.69
2024-02-14T12:08:21.359Z,101267.00
2024-02-14T12:10:51.004Z,101244.25
2024-02-14T12:13:21.774Z,101229.00
2024-02-14T12:15:52.711Z,101267.81
2024-02-14T12:18:22.882Z,101237.69
2024-02-14T12:20:55.798Z,101224.56
2024-02-14T12:23:27.678Z,101274.34
2024-02-14T12:26:05.688Z,101272.62
2024-02-14T12:28:33.387Z,101261.75
2024-02-14T12:31:01.649Z,101267.34
2024-02-14T12:33:31.121Z,101272.59
2024-02-14T12:35:59.732Z,101268.66
2024-02-14T12:38:27.688Z,101257.56
2024-02-14T12:40:55.927Z,101271.84
2024-02-14T12:43:23.614Z,101267.47
2024-02-14T12:45:51.523Z,101262.56
2024-02-14T12:48:28.232Z,101254.31
2024-02-14T12:50:57.485Z,101244.66
2024-02-14T12:53:25.578Z,101252.16
2024-02-14T12:55:53.476Z,101216.06
2024-02-14T12:58:21.553Z,101262.81
2024-02-14T13:00:49.299Z,101254.78
2024-02-14T13:03:18.627Z,101261.69
2024-02-14T13:05:48.559Z,101214.50
2024-02-14T13:08:18.069Z,101252.91
2024-02-14T13:10:46.144Z,101259.22
2024-02-14T13:13:17.296Z,101252.50
2024-02-14T13:15:46.077Z,101258.38
2024-02-14T13:18:14.854Z,101219.16
2024-02-14T13:20:43.636Z,101255.19
2024-02-14T13:23:11.968Z,101255.03
2024-02-14T13:25:40.290Z,101261.16
2024-02-14T13:28:07.932Z,101252.50
2024-02-14T13:30:37.006Z,101256.12
2024-02-14T13:33:06.730Z,101259.25
2024-02-14T13:35:39.133Z,101211.66
2024-02-14T13:38:07.756Z,101256.75
2024-02-14T13:40:35.364Z,101252.34
2024-02-14T13:43:02.913Z,101254.06
2024-02-14T13:45:46.085Z,101255.16
2024-02-14T13:48:14.673Z,101261.69
2024-02-14T13:50:44.590Z,101212.66
2024-02-14T13:53:12.316Z,101209.69
2024-02-14T13:55:41.040Z,101245.31
2024-02-14T13:58:15.588Z,101259.59
2024-02-14T14:00:44.129Z,101250.63
2024-02-14T14:03:13.205Z,101255.25
2024-02-14T14:05:41.405Z,101254.06
2024-02-14T14:08:09.316Z,101258.62
2024-02-14T14:10:37.165Z,101201.72
2024-02-14T14:13:05.081Z,101260.91
2024-02-14T14:15:34.145Z,101262.25
2024-02-14T14:18:02.366Z,101256.16
2024-02-14T14:20:30.539Z,101259.41
2024-02-14T14:22:58.241Z,101262.25
2024-02-14T14:25:26.246Z,101254.66
2024-02-14T14:27:53.959Z,101262.00
2024-02-14T14:30:21.587Z,101259.38
2024-02-14T14:32:49.618Z,101214.16
2024-02-14T14:35:17.500Z,101261.38
2024-02-14T14:37:45.214Z,101220.66
2024-02-14T14:40:13.047Z,101253.56
2024-02-14T14:42:40.692Z,101262.25
2024-02-14T14:45:08.816Z,101253.06
2024-02-14T14:47:37.325Z,101254.44
2024-02-14T14:50:06.937Z,101257.00
2024-02-14T14:52:34.854Z,101251.78
2024-02-14T14:55:02.893Z,101251.38
2024-02-14T14:57:30.537Z,101262.78
2024-02-14T14:59:58.404Z,101252.47
2024-02-14T15:02:26.988Z,101255.28
2024-02-14T15:04:54.625Z,101259.09
2024-02-14T15:07:22.401Z,101256.19
2024-02-14T15:09:50.381Z,101253.22
2024-02-14T15:12:17.992Z,101235.22
2024-02-14T15:14:45.704Z,101254.16
2024-02-14T15:17:13.702Z,101260.25
2024-02-14T15:19:43.249Z,101261.72
2024-02-14T15:22:10.842Z,101216.00
2024-02-14T15:24:40.832Z,101260.69
2024-02-14T15:27:08.574Z,101265.50
2024-02-14T15:29:54.711Z,101273.38
2024-02-14T15:32:41.628Z,101273.13
2024-02-14T15:35:11.216Z,101226.13
2024-02-14T15:37:39.170Z,101263.69
2024-02-14T15:40:07.428Z,101272.34
2024-02-14T15:42:35.199Z,101273.13
2024-02-14T15:45:03.696Z,101272.81
2024-02-14T15:47:31.485Z,101277.25
2024-02-14T15:49:59.095Z,101227.13
2024-02-14T15:52:26.953Z,101265.78
2024-02-14T15:54:55.532Z,101276.47
2024-02-14T15:57:23.465Z,101283.31
2024-02-14T15:59:52.577Z,101283.09
2024-02-14T16:02:20.696Z,101282.28
2024-02-14T16:04:48.588Z,101238.50
2024-02-14T16:07:16.433Z,101288.72
2024-02-14T16:09:44.192Z,101291.25
2024-02-14T16:12:12.378Z,101289.44
2024-02-14T16:14:43.259Z,101293.31
2024-02-14T16:17:11.955Z,101291.47
2024-02-14T16:19:40.269Z,101286.88
2024-02-14T16:22:12.895Z,101286.81
2024-02-14T16:24:46.889Z,101292.84
2024-02-14T16:27:14.483Z,101292.62
2024-02-14T16:29:42.463Z,101286.94
2024-02-14T16:32:10.349Z,101294.25
2024-02-14T16:34:38.891Z,101304.53
2024-02-14T16:37:06.865Z,101298.97
2024-02-14T16:39:41.796Z,101292.22
2024-02-14T16:42:12.096Z,101258.16
2024-02-14T16:44:40.563Z,101306.59
2024-02-14T16:47:09.313Z,101222.91
2024-02-14T16:49:36.983Z,101283.28
2024-02-14T16:52:06.405Z,101320.16
2024-02-14T16:54:34.337Z,101315.41
2024-02-14T16:57:13.892Z,101312.50
2024-02-14T16:59:46.467Z,101320.72
2024-02-14T17:02:14.860Z,101319.59
2024-02-14T17:04:45.593Z,101319.84
2024-02-14T17:07:15.641Z,101320.97
2024-02-14T17:09:43.921Z,101326.53
2024-02-14T17:12:12.226Z,101329.84
2024-02-14T17:14:42.285Z,101321.78
2024-02-14T17:17:11.576Z,101327.69
2024-02-14T17:19:39.764Z,101328.22
2024-02-14T17:22:17.742Z,101281.37
2024-02-14T17:24:56.839Z,101328.75
2024-02-14T17:27:25.133Z,101278.19
2024-02-14T17:29:53.118Z,101323.22
2024-02-14T17:32:31.872Z,101323.53
2024-02-14T17:35:05.211Z,101318.41
2024-02-14T17:37:34.994Z,101325.75
2024-02-14T17:40:02.834Z,101330.28
2024-02-14T17:42:30.722Z,101284.47
2024-02-14T17:44:58.798Z,101315.97
2024-02-14T17:47:27.860Z,101266.28
2024-02-14T17:49:55.839Z,101317.38
2024-02-14T17:52:24.057Z,101317.78
2024-02-14T17:54:52.274Z,101312.72
2024-02-14T17:57:20.526Z,101316.88
2024-02-14T17:59:48.417Z,101331.16
2024-02-14T18:02:16.073Z,101325.47
2024-02-14T18:04:44.515Z,101330.69
2024-02-14T18:07:12.342Z,101326.44
2024-02-14T18:09:40.142Z,101331.38
2024-02-14T18:12:08.029Z,101296.50
2024-02-14T18:14:35.798Z,101330.25
2024-02-14T18:17:03.793Z,101329.47
2024-02-14T18:19:31.802Z,101326.03
2024-02-14T18:21:59.401Z,101332.25
2024-02-14T18:24:26.936Z,101329.78
2024-02-14T18:26:54.877Z,101332.50
2024-02-14T18:29:22.404Z,101340.69
2024-02-14T18:31:49.997Z,101341.50
2024-02-14T18:34:18.409Z,101345.91
2024-02-14T18:36:46.213Z,101354.75
2024-02-14T18:39:14.232Z,101351.41
2024-02-14T18:41:42.565Z,101356.91
2024-02-14T18:44:10.272Z,101334.44
2024-02-14T18:46:38.047Z,101354.19
2024-02-14T18:49:06.860Z,101354.09
2024-02-14T18:51:37.428Z,101356.31
2024-02-14T18:54:06.336Z,101359.91
2024-02-14T18:56:35.764Z,101354.38
2024-02-14T18:59:03.357Z,101314.22
2024-02-14T19:01:30.995Z,101353.06
2024-02-14T19:04:01.673Z,101349.88
2024-02-14T19:06:30.994Z,101352.63
2024-02-14T19:08:58.935Z,101352.44
2024-02-14T19:11:26.814Z,101358.06
2024-02-14T19:13:55.389Z,101351.16
2024-02-14T19:16:28.513Z,101358.13
2024-02-14T19:18:57.980Z,101350.59
2024-02-14T19:21:26.146Z,101358.06
2024-02-14T19:23:53.767Z,101350.19
2024-02-14T19:26:22.487Z,101356.59
2024-02-14T19:28:50.740Z,101355.44
2024-02-14T19:31:18.455Z,101348.41
2024-02-14T19:33:47.386Z,101349.81
2024-02-14T19:36:15.755Z,101268.22
2024-02-14T19:38:43.385Z,101303.34
2024-02-14T19:41:11.527Z,101355.44
2024-02-14T19:43:40.543Z,101358.03
2024-02-14T19:46:08.871Z,101352.06
2024-02-14T19:48:37.247Z,101352.97
2024-02-14T19:51:05.838Z,101302.69
2024-02-14T19:53:34.898Z,101352.28
2024-02-14T19:56:02.761Z,101351.66
2024-02-14T19:58:30.852Z,101357.69
2024-02-14T20:00:58.799Z,101359.66
2024-02-14T20:03:26.959Z,101358.75
2024-02-14T20:05:54.638Z,101304.75
2024-02-14T20:08:26.554Z,101297.75
2024-02-14T20:10:56.819Z,101347.94
2024-02-14T20:13:25.002Z,101366.28
2024-02-14T20:15:53.164Z,101362.91
2024-02-14T20:18:21.194Z,101314.22
2024-02-14T20:20:49.130Z,101360.53
2024-02-14T20:23:16.817Z,101360.72
2024-02-14T20:25:45.467Z,101363.94
2024-02-14T20:28:13.503Z,101358.38
2024-02-14T20:30:41.060Z,101365.97
2024-02-14T20:33:09.300Z,101358.81
2024-02-14T20:35:37.681Z,101361.41
2024-02-14T20:38:10.762Z,101363.09
2024-02-14T20:40:39.241Z,101365.66
2024-02-14T20:43:07.069Z,101362.87
2024-02-14T20:45:36.311Z,101366.19
2024-02-14T20:48:05.021Z,101361.84
2024-02-14T20:50:32.920Z,101359.66
2024-02-14T20:53:00.628Z,101362.25
2024-02-14T20:55:29.773Z,101355.25
2024-02-14T20:57:58.315Z,101313.91
2024-02-14T21:00:26.171Z,101368.50
2024-02-14T21:02:54.433Z,101363.41
2024-02-14T21:05:23.016Z,101361.44
2024-02-14T21:07:50.606Z,101370.00
2024-02-14T21:10:20.952Z,101371.56
2024-02-14T21:12:48.977Z,101363.66
2024-02-14T21:15:16.871Z,101361.34
2024-02-14T21:17:45.115Z,101361.22
2024-02-14T21:20:13.323Z,101367.34
2024-02-14T21:22:40.928Z,101365.28
2024-02-14T21:25:08.935Z,101319.81
2024-02-14T21:27:36.669Z,101360.78
2024-02-14T21:30:06.852Z,101354.59
2024-02-14T21:32:34.827Z,101348.28
2024-02-14T21:35:02.516Z,101352.63
2024-02-14T21:37:30.219Z,101357.97
2024-02-14T21:39:58.984Z,101312.69
2024-02-14T21:42:26.468Z,101310.28
2024-02-14T21:44:55.021Z,101359.22
2024-02-14T21:47:22.972Z,101361.28
2024-02-14T21:49:50.567Z,101360.72
2024-02-14T21:52:18.094Z,101362.75
2024-02-14T21:54:46.031Z,101358.25
2024-02-14T21:57:13.764Z,101356.81
2024-02-14T21:59:41.683Z,101359.69
2024-02-14T22:02:09.563Z,101356.78
2024-02-14T22:04:37.436Z,101362.13
2024-02-14T22:07:05.408Z,101360.50
2024-02-14T22:09:33.097Z,101355.31
2024-02-14T22:12:01.028Z,101360.50
2024-02-14T22:14:28.963Z,101359.00
2024-02-14T22:16:59.421Z,101362.13
2024-02-14T22:19:28.679Z,101357.31
2024-02-14T22:21:56.530Z,101357.97
2024-02-14T22:24:25.530Z,101347.41
2024-02-14T22:26:53.866Z,101309.06
2024-02-14T22:29:21.400Z,101355.56
2024-02-14T22:31:49.701Z,101303.25
2024-02-14T22:34:17.692Z,101339.28
2024-02-14T22:36:45.649Z,101348.56
2024-02-14T22:39:13.242Z,101338.16
2024-02-14T22:41:41.738Z,101350.66
2024-02-14T22:44:09.264Z,101351.84
2024-02-14T22:46:39.631Z,101340.50
2024-02-14T22:49:08.027Z,101307.81
2024-02-14T22:51:35.682Z,101296.06
2024-02-14T22:54:04.039Z,101336.47
2024-02-14T22:56:32.567Z,101335.69
2024-02-14T22:59:00.577Z,101335.88
2024-02-14T23:01:28.166Z,101340.28
2024-02-14T23:03:55.999Z,101343.47
2024-02-14T23:06:23.742Z,101345.72
2024-02-14T23:08:51.425Z,101337.22
2024-02-14T23:11:19.325Z,101340.84
2024-02-14T23:13:47.100Z,101338.50
2024-02-14T23:16:14.603Z,101333.09
2024-02-14T23:18:42.602Z,101339.88
2024-02-14T23:21:10.262Z,101332.34
2024-02-14T23:23:37.910Z,101337.16
2024-02-14T23:26:05.706Z,101329.53
2024-02-14T23:28:33.197Z,101277.41
2024-02-14T23:31:01.334Z,101333.34
2024-02-14T23:33:29.359Z,101299.00
2024-02-14T23:35:58.209Z,101342.66
2024-02-14T23:38:25.915Z,101344.81
2024-02-14T23:40:53.829Z,101344.69
2024-02-14T23:43:21.365Z,101346.38
2024-02-14T23:45:48.969Z,101300.00
2024-02-14T23:48:17.021Z,101351.56
2024-02-14T23:50:44.770Z,101353.97
2024-02-14T23:53:13.717Z,101354.81
2024-02-14T23:55:41.669Z,101309.66
2024-02-14T23:58:11.205Z,101361.09
